Triumph — WDC9555 — position and weather

sailwx.info

Track history (hours):
 
Tides and Currents Weather Stations Pressure Air Temp Water Temp Dewpoint Dewpoint Depression Visibility Wind Speed Wind Dir Waves Ship Positions

Triumph

Owner: WESTERN TOWBOAT CO, SEATTLE, WA. More information available from US FCC via Universal Licensing System and Coast Guard Vessel Documentation Center.

Last reported at 2017-Jan-24 14:33 UTC. Time now 2017-Jan-24 15:11 UTC.
Position N 49°09' W 123°02'.

Length 24 m; draft 3 m.

Type: Tow > 200 m length. MMSI: 367103880.

Date/timePositionNaut miles runAvg speedWind from/ knotsBaromVisibWave heightAir tempDewpointWater temp
2017-Jan-24 14:33N 49°09' W 123°02'0 0.0
2017-Jan-24 13:33N 49°09' W 123°02'0 0.0
2017-Jan-24 12:33N 49°09' W 123°02'0 0.0
2017-Jan-24 11:33N 49°09' W 123°02'0 0.0
2017-Jan-24 10:33N 49°09' W 123°02'5 4.5
2017-Jan-24 09:33N 49°07' W 123°08'8 7.5
2017-Jan-24 08:33N 49°06' W 123°19'8 8.5
2017-Jan-24 07:33N 48°59' W 123°12'10 9.3
2017-Jan-24 06:30N 48°53' W 123°00'9 8.9
2017-Jan-24 05:28N 48°47' W 122°50'8 8.6
2017-Jan-24 04:33N 48°41' W 122°42'7 7.3
2017-Jan-24 03:33N 48°34' W 122°45'7 6.7
2017-Jan-24 02:33N 48°27' W 122°44'27 8.8
2017-Jan-23 23:28N 48°00' W 122°36'9 9.7
2017-Jan-23 22:33N 47°53' W 122°28'9 9.1
2017-Jan-23 21:33N 47°44' W 122°26'8 8.1
2017-Jan-23 20:33N 47°36' W 122°23'3 2.8
2017-Jan-23 19:33N 47°34' W 122°21'  
2017-Jan-18 21:18N 47°34' W 122°21'1 1.5
2017-Jan-18 20:33N 47°35' W 122°21'0 0.0
2017-Jan-18 19:33N 47°35' W 122°21'1 0.1
2017-Jan-18 04:31N 47°34' W 122°21'1 1.2
2017-Jan-18 03:33N 47°35' W 122°22'6 5.9
2017-Jan-18 02:33N 47°39' W 122°28'7 6.7
2017-Jan-18 01:33N 47°46' W 122°27'7 7.0
2017-Jan-18 00:33N 47°53' W 122°29'7 6.7
2017-Jan-17 23:29N 47°58' W 122°36'13 4.2
2017-Jan-17 20:22N 48°10' W 122°46'3 3.8
2017-Jan-17 19:32N 48°12' W 122°48'11 5.4
2017-Jan-17 17:31N 48°23' W 122°44'4 4.4
2017-Jan-17 16:33N 48°27' W 122°45'3 3.1
2017-Jan-17 15:33N 48°30' W 122°45'3 3.3
2017-Jan-17 14:33N 48°34' W 122°45'3 3.2
2017-Jan-17 13:33N 48°37' W 122°45'4 4.4
2017-Jan-17 12:33N 48°41' W 122°44'6 6.2
2017-Jan-17 11:33N 48°46' W 122°51'8 7.7
2017-Jan-17 10:33N 48°51' W 123°00'7 7.3
2017-Jan-17 09:33N 48°55' W 123°09'8 7.9
2017-Jan-17 08:33N 49°00' W 123°18'7 6.7
2017-Jan-17 07:33N 49°07' W 123°17'6 6.4
2017-Jan-17 06:33N 49°07' W 123°07'4 4.3
2017-Jan-17 05:33N 49°09' W 123°02'0 0.0
2017-Jan-17 04:33N 49°09' W 123°02'0 0.0
2017-Jan-17 03:33N 49°09' W 123°02'0 0.0
2017-Jan-17 02:33N 49°09' W 123°02'0 0.0
2017-Jan-17 01:33N 49°09' W 123°02'0 0.0
2017-Jan-17 00:33N 49°09' W 123°02'0 0.0
2017-Jan-16 23:33N 49°09' W 123°02'0 0.0
2017-Jan-16 22:33N 49°09' W 123°02'0 0.0
2017-Jan-16 21:33N 49°09' W 123°02'0 0.0
2017-Jan-16 20:33N 49°09' W 123°02'0 0.0
2017-Jan-16 19:33N 49°09' W 123°02'0 0.0
2017-Jan-16 18:33N 49°09' W 123°02'0 0.0
2017-Jan-16 17:33N 49°09' W 123°02'0 0.0
2017-Jan-16 16:33N 49°09' W 123°02'0 0.0
2017-Jan-16 15:33N 49°09' W 123°02'0 0.0
2017-Jan-16 14:33N 49°09' W 123°02'5 4.5
2017-Jan-16 13:33N 49°07' W 123°08'8 7.7
2017-Jan-16 12:33N 49°05' W 123°19'9 9.1
2017-Jan-16 11:33N 48°58' W 123°10'21 9.4
2017-Jan-16 09:18N 48°45' W 122°45'6 7.5
2017-Jan-16 08:33N 48°39' W 122°43'6 6.0
2017-Jan-16 07:33N 48°34' W 122°45'6 6.0
2017-Jan-16 06:33N 48°28' W 122°44'29 8.4
2017-Jan-16 03:05N 47°59' W 122°35'510.0
2017-Jan-16 02:33N 47°55' W 122°29'7 6.5
2017-Jan-16 01:33N 47°56' W 122°19'5 4.7
2017-Jan-16 00:33N 47°59' W 122°13'0 0.0
2017-Jan-15 23:33N 47°59' W 122°13'0 0.0
2017-Jan-15 22:33N 47°59' W 122°13'0 0.0
2017-Jan-15 21:33N 47°59' W 122°13'0 0.0
2017-Jan-15 20:33N 47°59' W 122°13'0 0.0
2017-Jan-15 19:33N 47°59' W 122°13'0 0.0
2017-Jan-15 18:33N 47°59' W 122°13'0 0.0
2017-Jan-15 17:20N 47°59' W 122°13'0 0.0
2017-Jan-15 16:33N 47°59' W 122°13'0 0.0
2017-Jan-15 15:33N 47°59' W 122°13'0 0.0
2017-Jan-15 14:33N 47°59' W 122°13'0 0.0
2017-Jan-15 13:33N 47°59' W 122°13'0 0.0
2017-Jan-15 12:33N 47°59' W 122°13'0 0.0
2017-Jan-15 11:33N 47°59' W 122°13'0 0.0
2017-Jan-15 10:33N 47°59' W 122°13'0 0.0
2017-Jan-15 09:33N 47°59' W 122°13'0 0.0
2017-Jan-15 08:33N 47°59' W 122°13'0 0.0
2017-Jan-15 07:33N 47°59' W 122°13'0 0.0
2017-Jan-15 06:33N 47°59' W 122°13'0 0.0
2017-Jan-15 05:33N 47°59' W 122°13'0 0.0
2017-Jan-15 04:33N 47°59' W 122°13'0 0.0
2017-Jan-15 03:33N 47°59' W 122°13'0 0.0
2017-Jan-15 02:33N 47°59' W 122°13'0 0.0
2017-Jan-15 01:33N 47°59' W 122°13'0 0.0
2017-Jan-15 00:33N 47°59' W 122°13'1 1.5
2017-Jan-14 23:33N 47°58' W 122°15'7 6.6
2017-Jan-14 22:33N 47°54' W 122°22'6 6.5
2017-Jan-14 21:33N 47°56' W 122°32'17 5.6
2017-Jan-14 18:25N 48°10' W 122°46'12 6.2
2017-Jan-14 16:33N 48°22' W 122°46'7 7.0
2017-Jan-14 15:33N 48°29' W 122°45'6 5.5
2017-Jan-14 14:33N 48°34' W 122°45'  
Track history (hours):
 
Tides and Currents Weather Stations Pressure Air Temp Water Temp Dewpoint Dewpoint Depression Visibility Wind Speed Wind Dir Waves Ship Positions

Triumph

Owner: WESTERN TOWBOAT CO, SEATTLE, WA. More information available from US FCC via Universal Licensing System and Coast Guard Vessel Documentation Center.

Last reported at 2017-Jan-24 14:33 UTC. Time now 2017-Jan-24 15:11 UTC.
Position N 49°09' W 123°02'.

Length 24 m; draft 3 m.

Type: Tow > 200 m length. MMSI: 367103880.

Date/timePositionNaut miles runAvg speedWind from/ knotsBaromVisibWave heightAir tempDewpointWater temp
2017-Jan-24 14:33N 49°09' W 123°02'0 0.0
2017-Jan-24 13:33N 49°09' W 123°02'0 0.0
2017-Jan-24 12:33N 49°09' W 123°02'0 0.0
2017-Jan-24 11:33N 49°09' W 123°02'0 0.0
2017-Jan-24 10:33N 49°09' W 123°02'5 4.5
2017-Jan-24 09:33N 49°07' W 123°08'8 7.5
2017-Jan-24 08:33N 49°06' W 123°19'8 8.5
2017-Jan-24 07:33N 48°59' W 123°12'10 9.3
2017-Jan-24 06:30N 48°53' W 123°00'9 8.9
2017-Jan-24 05:28N 48°47' W 122°50'8 8.6
2017-Jan-24 04:33N 48°41' W 122°42'7 7.3
2017-Jan-24 03:33N 48°34' W 122°45'7 6.7
2017-Jan-24 02:33N 48°27' W 122°44'27 8.8
2017-Jan-23 23:28N 48°00' W 122°36'9 9.7
2017-Jan-23 22:33N 47°53' W 122°28'9 9.1
2017-Jan-23 21:33N 47°44' W 122°26'8 8.1
2017-Jan-23 20:33N 47°36' W 122°23'3 2.8
2017-Jan-23 19:33N 47°34' W 122°21'  
2017-Jan-18 21:18N 47°34' W 122°21'1 1.5
2017-Jan-18 20:33N 47°35' W 122°21'0 0.0
2017-Jan-18 19:33N 47°35' W 122°21'1 0.1
2017-Jan-18 04:31N 47°34' W 122°21'1 1.2
2017-Jan-18 03:33N 47°35' W 122°22'6 5.9
2017-Jan-18 02:33N 47°39' W 122°28'7 6.7
2017-Jan-18 01:33N 47°46' W 122°27'7 7.0
2017-Jan-18 00:33N 47°53' W 122°29'7 6.7
2017-Jan-17 23:29N 47°58' W 122°36'13 4.2
2017-Jan-17 20:22N 48°10' W 122°46'3 3.8
2017-Jan-17 19:32N 48°12' W 122°48'11 5.4
2017-Jan-17 17:31N 48°23' W 122°44'4 4.4
2017-Jan-17 16:33N 48°27' W 122°45'3 3.1
2017-Jan-17 15:33N 48°30' W 122°45'3 3.3
2017-Jan-17 14:33N 48°34' W 122°45'3 3.2
2017-Jan-17 13:33N 48°37' W 122°45'4 4.4
2017-Jan-17 12:33N 48°41' W 122°44'6 6.2
2017-Jan-17 11:33N 48°46' W 122°51'8 7.7
2017-Jan-17 10:33N 48°51' W 123°00'7 7.3
2017-Jan-17 09:33N 48°55' W 123°09'8 7.9
2017-Jan-17 08:33N 49°00' W 123°18'7 6.7
2017-Jan-17 07:33N 49°07' W 123°17'6 6.4
2017-Jan-17 06:33N 49°07' W 123°07'4 4.3
2017-Jan-17 05:33N 49°09' W 123°02'0 0.0
2017-Jan-17 04:33N 49°09' W 123°02'0 0.0
2017-Jan-17 03:33N 49°09' W 123°02'0 0.0
2017-Jan-17 02:33N 49°09' W 123°02'0 0.0
2017-Jan-17 01:33N 49°09' W 123°02'0 0.0
2017-Jan-17 00:33N 49°09' W 123°02'0 0.0
2017-Jan-16 23:33N 49°09' W 123°02'0 0.0
2017-Jan-16 22:33N 49°09' W 123°02'0 0.0
2017-Jan-16 21:33N 49°09' W 123°02'0 0.0
2017-Jan-16 20:33N 49°09' W 123°02'0 0.0
2017-Jan-16 19:33N 49°09' W 123°02'0 0.0
2017-Jan-16 18:33N 49°09' W 123°02'0 0.0
2017-Jan-16 17:33N 49°09' W 123°02'0 0.0
2017-Jan-16 16:33N 49°09' W 123°02'0 0.0
2017-Jan-16 15:33N 49°09' W 123°02'0 0.0
2017-Jan-16 14:33N 49°09' W 123°02'5 4.5
2017-Jan-16 13:33N 49°07' W 123°08'8 7.7
2017-Jan-16 12:33N 49°05' W 123°19'9 9.1
2017-Jan-16 11:33N 48°58' W 123°10'21 9.4
2017-Jan-16 09:18N 48°45' W 122°45'6 7.5
2017-Jan-16 08:33N 48°39' W 122°43'6 6.0
2017-Jan-16 07:33N 48°34' W 122°45'6 6.0
2017-Jan-16 06:33N 48°28' W 122°44'29 8.4
2017-Jan-16 03:05N 47°59' W 122°35'510.0
2017-Jan-16 02:33N 47°55' W 122°29'7 6.5
2017-Jan-16 01:33N 47°56' W 122°19'5 4.7
2017-Jan-16 00:33N 47°59' W 122°13'0 0.0
2017-Jan-15 23:33N 47°59' W 122°13'0 0.0
2017-Jan-15 22:33N 47°59' W 122°13'0 0.0
2017-Jan-15 21:33N 47°59' W 122°13'0 0.0
2017-Jan-15 20:33N 47°59' W 122°13'0 0.0
2017-Jan-15 19:33N 47°59' W 122°13'0 0.0
2017-Jan-15 18:33N 47°59' W 122°13'0 0.0
2017-Jan-15 17:20N 47°59' W 122°13'0 0.0
2017-Jan-15 16:33N 47°59' W 122°13'0 0.0
2017-Jan-15 15:33N 47°59' W 122°13'0 0.0
2017-Jan-15 14:33N 47°59' W 122°13'0 0.0
2017-Jan-15 13:33N 47°59' W 122°13'0 0.0
2017-Jan-15 12:33N 47°59' W 122°13'0 0.0
2017-Jan-15 11:33N 47°59' W 122°13'0 0.0
2017-Jan-15 10:33N 47°59' W 122°13'0 0.0
2017-Jan-15 09:33N 47°59' W 122°13'0 0.0
2017-Jan-15 08:33N 47°59' W 122°13'0 0.0
2017-Jan-15 07:33N 47°59' W 122°13'0 0.0
2017-Jan-15 06:33N 47°59' W 122°13'0 0.0
2017-Jan-15 05:33N 47°59' W 122°13'0 0.0
2017-Jan-15 04:33N 47°59' W 122°13'0 0.0
2017-Jan-15 03:33N 47°59' W 122°13'0 0.0
2017-Jan-15 02:33N 47°59' W 122°13'0 0.0
2017-Jan-15 01:33N 47°59' W 122°13'0 0.0
2017-Jan-15 00:33N 47°59' W 122°13'1 1.5
2017-Jan-14 23:33N 47°58' W 122°15'7 6.6
2017-Jan-14 22:33N 47°54' W 122°22'6 6.5
2017-Jan-14 21:33N 47°56' W 122°32'17 5.6
2017-Jan-14 18:25N 48°10' W 122°46'12 6.2
2017-Jan-14 16:33N 48°22' W 122°46'7 7.0
2017-Jan-14 15:33N 48°29' W 122°45'6 5.5
2017-Jan-14 14:33N 48°34' W 122°45'  

Dump ship's entire track history